Peawanuck Airport
CYPO : now visible

Airfield :











YOU CAN JOIN US ON...

 
LOGIN :

Register | Disclaimer

   EN    FR    IT 

 









Legend :    VFR   Marginal VFR   IFR   Intensive IFR   Very Intensive IFR
Visi :
Ceiling :
>= 8 km
>= 3000ft
5 to 8 km
1000 to 3000 ft
1500m to 5 km
500 to 1000 ft
800 to 1500m
200 to 500 ft
< 800m
< 200 ft
Symbols :   Thunderstorms  Fog  Heavy snow  Heavy precipitations  Wind > 20 kt






- Airport Elevation : 173 ft
- IATA code : YPO


CYPO - Peawanuck

CURRENT METAR :
  • 021432Z AUTO 30012G18KT 3SM HZ OVC023 M33/M37 A2987 RMK SLP128

EXPIRED METARs :
  • 021419Z AUTO 30012G19KT 3SM -SN OVC027 M33/M37 A2986 RMK SLP126
  • 021400Z AUTO 29013G19KT 2 1/2SM -SN OVC027 M33/M37 A2985 RMK VIS VRB 1 1/2-2 1/2 SLP123
  • 021352Z AUTO 30013G18KT 2 1/2SM -SN OVC025 M33/M37 A2985 RMK SLP123
  • 021329Z AUTO 30012G17KT 2SM -SN OVC025 M33/M37 A2984 RMK SLP119
  • 021313Z AUTO 30012G18KT 2 1/4SM HZ OVC025 M33/M37 A2984 RMK SLP118
  • 021300Z AUTO 29010G17KT 2 1/2SM -SN OVC025 M33/M37 A2983 RMK SLP114
  • 021254Z AUTO 29013KT 2 1/2SM -SN OVC023 M33/M37 A2983 RMK SLP115
  • 021218Z AUTO 29010G16KT 2 1/4SM -SN OVC023 M33/M37 A2982 RMK SLP112
  • 021210Z AUTO 29010G16KT 3SM -SN FEW020 OVC025 M33/M37 A2982 RMK SLP112

TAF N/A
CZWG FIR / North America



MET'MAP, your aeronautical weather chart ! - Copyright ORBIFLY December 2007 - Disclaimer

ORBIFLY MET'MAP TEAM :

Programming & Development : Alexandra Zaïnal
Original concept : Baudouin d'Aumeries
Technical & hardware support : Manuel Goepfert
Assistance : Marc-Olivier Méhu




SOURCES & CREDITS :

   NOAA       Earth
Advisory